Time;durP1;ratioP1;P1;durP2;ratioP2;P2;SDS_P1;SDS_P2;PMS_P1;PMS_P2;Temp;Humidity;BMP_temperature;BMP_pressure;BME280_temperature;BME280_humidity;BME280_pressure;Samples;Min_cycle;Max_cycle;Signal;HPM_P1;HPM_P2
2022/08/23 00:01:22;;;;;;;4.10;1.65;;;22.60;66.40;;;;;;4975815;28;20503;-80
2022/08/23 00:03:49;;;;;;;6.35;1.63;;;22.60;65.60;;;;;;4974391;28;20031;-79
2022/08/23 00:06:16;;;;;;;3.63;1.45;;;22.60;65.40;;;;;;4974253;28;20539;-79
2022/08/23 00:08:41;;;;;;;7.43;1.67;;;22.60;66.10;;;;;;4975087;28;20033;-78
2022/08/23 00:11:29;;;;;;;7.03;1.60;;;22.50;67.30;;;;;;4975500;28;20125;-78
2022/08/23 00:13:56;;;;;;;6.50;1.70;;;22.50;66.10;;;;;;4975324;28;20061;-78
2022/08/23 00:16:22;;;;;;;5.28;1.83;;;22.50;66.90;;;;;;4974455;28;20074;-79
2022/08/23 00:18:48;;;;;;;6.20;1.83;;;22.50;67.30;;;;;;4975317;28;20055;-77
2022/08/23 00:21:14;;;;;;;5.50;1.67;;;22.50;67.00;;;;;;4975310;28;20034;-79
2022/08/23 00:23:40;;;;;;;6.40;1.60;;;22.40;66.50;;;;;;4975024;28;20035;-79
2022/08/23 00:26:06;;;;;;;7.40;1.92;;;22.40;66.90;;;;;;4975567;28;20062;-79
2022/08/23 00:28:32;;;;;;;3.35;1.88;;;22.40;67.00;;;;;;4973940;28;20027;-80
2022/08/23 00:30:58;;;;;;;3.65;1.58;;;22.40;67.70;;;;;;4973982;28;20082;-81
2022/08/23 00:33:24;;;;;;;3.88;1.48;;;22.40;67.90;;;;;;4974952;28;20041;-81
2022/08/23 00:35:50;;;;;;;3.17;1.58;;;22.30;67.00;;;;;;4974973;28;20061;-80
2022/08/23 00:38:16;;;;;;;3.33;1.85;;;22.30;67.60;;;;;;4973691;28;20031;-80
2022/08/23 00:40:49;;;;;;;4.82;1.70;;;22.30;68.20;;;;;;4975094;28;20019;-79
2022/08/23 00:49:19;;;;;;;5.40;1.70;;;22.30;67.80;;;;;;4974656;28;20405;-80
2022/08/23 00:51:47;;;;;;;4.75;1.77;;;22.30;67.90;;;;;;4974559;28;20468;-80
2022/08/23 00:54:14;;;;;;;;;;;22.30;68.60;;;;;;4973809;28;20074;-81
2022/08/23 00:56:41;;;;;;;4.55;1.63;;;22.30;68.90;;;;;;4974583;28;19977;-80
2022/08/23 00:59:06;;;;;;;5.70;1.70;;;22.20;71.10;;;;;;4974860;28;20085;-81
2022/08/23 01:01:33;;;;;;;7.18;1.75;;;22.20;69.70;;;;;;4974381;28;20034;-79
2022/08/23 01:03:59;;;;;;;2.70;1.50;;;22.30;70.20;;;;;;4974567;28;20031;-79
2022/08/23 01:06:33;;;;;;;7.25;1.80;;;22.20;70.70;;;;;;4973306;28;20062;-79
2022/08/23 01:09:09;;;;;;;7.18;1.90;;;22.20;71.10;;;;;;4974150;28;20042;-79
2022/08/23 01:12:00;;;;;;;4.38;1.42;;;22.20;71.00;;;;;;4973739;28;20043;-81
2022/08/23 01:14:35;;;;;;;3.38;1.70;;;22.20;71.20;;;;;;4971385;28;20047;-79
2022/08/23 01:17:21;;;;;;;8.38;2.25;;;22.00;71.70;;;;;;4974432;28;20034;-79
2022/08/23 01:19:51;;;;;;;6.32;1.73;;;22.00;72.00;;;;;;4973955;28;20035;-80
2022/08/23 01:22:41;;;;;;;5.50;1.98;;;22.00;71.80;;;;;;4974104;28;20270;-80
2022/08/23 01:25:11;;;;;;;4.28;1.88;;;22.00;71.90;;;;;;4973752;28;20058;-79
2022/08/23 01:27:38;;;;;;;4.85;1.88;;;22.00;71.40;;;;;;4973864;28;20031;-78
2022/08/23 01:30:07;;;;;;;3.67;1.60;;;22.10;71.30;;;;;;4972640;28;20042;-79
2022/08/23 01:32:41;;;;;;;4.90;2.05;;;22.10;70.80;;;;;;4973634;28;20377;-78
2022/08/23 01:35:07;;;;;;;2.20;1.50;;;22.00;71.60;;;;;;4976107;28;20019;-79
2022/08/23 01:37:33;;;;;;;4.00;1.40;;;22.10;71.50;;;;;;4993094;28;20037;-79
2022/08/23 01:39:59;;;;;;;9.13;1.90;;;22.00;72.20;;;;;;4993483;28;20034;-80
2022/08/23 01:42:25;;;;;;;8.65;5.22;;;22.00;72.60;;;;;;4993524;28;20042;-78
2022/08/23 01:44:50;;;;;;;10.43;4.43;;;22.10;72.70;;;;;;4992205;28;20026;-79
2022/08/23 01:47:16;;;;;;;5.82;2.17;;;22.00;73.00;;;;;;4992875;28;20445;-79
2022/08/23 01:49:42;;;;;;;4.32;1.63;;;21.90;72.80;;;;;;4993358;28;20036;-78
2022/08/23 01:52:08;;;;;;;7.22;2.10;;;21.90;73.10;;;;;;4992941;28;20044;-78
2022/08/23 01:54:34;;;;;;;5.90;1.60;;;22.00;73.30;;;;;;4992760;28;20042;-78
2022/08/23 01:56:59;;;;;;;4.03;1.80;;;21.90;73.60;;;;;;4991833;28;20042;-78
2022/08/23 01:59:25;;;;;;;7.40;1.55;;;21.90;73.50;;;;;;4992766;28;20030;-78
2022/08/23 02:01:52;;;;;;;4.95;1.80;;;21.90;73.70;;;;;;4992209;28;20053;-79
2022/08/23 02:04:18;;;;;;;4.40;1.85;;;21.90;74.00;;;;;;4992784;28;20488;-79
2022/08/23 02:06:45;;;;;;;3.83;1.55;;;21.90;74.20;;;;;;4992832;28;20035;-78
2022/08/23 02:09:10;;;;;;;3.03;1.67;;;21.90;74.00;;;;;;4992573;28;20042;-79
2022/08/23 02:11:39;;;;;;;4.68;1.95;;;21.90;75.10;;;;;;4992344;28;20527;-79
2022/08/23 02:14:10;;;;;;;6.43;2.30;;;21.80;74.20;;;;;;4991857;28;20463;-79
2022/08/23 02:16:48;;;;;;;4.50;1.63;;;21.80;74.40;;;;;;4991202;28;20109;-79
2022/08/23 02:19:15;;;;;;;8.15;1.90;;;21.70;74.70;;;;;;4992657;28;20058;-78
2022/08/23 02:21:41;;;;;;;6.25;1.65;;;21.80;73.70;;;;;;4991582;28;20023;-79
2022/08/23 02:24:17;;;;;;;7.30;1.85;;;21.80;74.40;;;;;;4991250;28;20038;-79
2022/08/23 02:26:46;;;;;;;6.78;1.98;;;21.80;74.20;;;;;;4992553;28;20045;-78
2022/08/23 02:29:14;;;;;;;4.88;2.00;;;21.70;75.30;;;;;;4992406;28;20023;-76
2022/08/23 02:31:40;;;;;;;4.72;1.48;;;21.60;75.50;;;;;;4992925;28;20049;-80
2022/08/23 02:34:06;;;;;;;7.95;2.00;;;21.60;75.90;;;;;;4992205;28;20456;-80
2022/08/23 02:36:33;;;;;;;5.68;2.30;;;21.50;76.30;;;;;;4992263;28;20364;-80
2022/08/23 02:38:59;;;;;;;6.00;1.90;;;21.40;76.50;;;;;;4992388;28;20461;-78
2022/08/23 02:41:24;;;;;;;6.97;2.00;;;21.50;76.80;;;;;;4992300;28;20286;-80
2022/08/23 02:43:52;;;;;;;3.97;1.75;;;21.50;76.70;;;;;;4992533;28;20054;-80
2022/08/23 02:46:18;;;;;;;85.18;53.03;;;21.50;76.70;;;;;;4992392;28;20045;-78
2022/08/23 02:48:44;;;;;;;25.30;13.48;;;21.50;76.50;;;;;;4991425;28;20350;-78
2022/08/23 02:51:10;;;;;;;15.95;5.15;;;21.40;77.10;;;;;;4991983;28;20088;-80
2022/08/23 02:53:36;;;;;;;7.55;2.17;;;21.40;77.10;;;;;;4990877;28;20104;-81
2022/08/23 02:56:05;;;;;;;5.20;1.90;;;21.40;77.60;;;;;;4992527;28;20022;-80
2022/08/23 02:58:31;;;;;;;4.03;1.83;;;21.40;77.80;;;;;;4992083;28;20030;-79
2022/08/23 03:00:57;;;;;;;7.55;1.73;;;21.40;77.70;;;;;;4991756;28;20037;-80
2022/08/23 03:03:23;;;;;;;5.97;2.03;;;21.40;78.10;;;;;;4991878;28;20022;-78
2022/08/23 03:05:49;;;;;;;6.25;1.92;;;21.30;77.90;;;;;;4990753;28;20038;-79
2022/08/23 03:08:16;;;;;;;4.63;2.03;;;21.40;78.00;;;;;;4991627;28;20041;-80
2022/08/23 03:10:47;;;;;;;5.22;1.70;;;21.30;78.30;;;;;;4991801;28;20058;-80
2022/08/23 03:13:13;;;;;;;3.10;1.88;;;21.30;78.50;;;;;;4991943;28;20035;-80
2022/08/23 03:15:40;;;;;;;5.45;1.98;;;21.20;78.60;;;;;;4990658;28;20060;-79
2022/08/23 03:18:07;;;;;;;5.05;2.08;;;21.20;79.10;;;;;;4991437;28;20033;-80
2022/08/23 03:20:33;;;;;;;7.95;1.70;;;21.20;79.40;;;;;;4991484;28;20058;-80
2022/08/23 03:23:00;;;;;;;6.07;2.28;;;21.20;78.90;;;;;;4991975;28;20018;-80
2022/08/23 03:25:26;;;;;;;8.80;1.52;;;21.20;79.50;;;;;;4990420;28;20491;-80
2022/08/23 03:27:51;;;;;;;4.95;1.70;;;21.00;80.00;;;;;;4991475;28;20030;-79
2022/08/23 03:30:17;;;;;;;9.35;1.80;;;20.90;80.30;;;;;;4989904;28;20030;-80
2022/08/23 03:32:43;;;;;;;6.00;1.50;;;21.00;80.40;;;;;;4990469;28;20026;-81
2022/08/23 03:35:09;;;;;;;5.80;1.65;;;21.00;80.50;;;;;;4993652;28;20037;-80
2022/08/23 03:37:35;;;;;;;6.70;1.73;;;21.10;80.20;;;;;;4991471;28;20034;-80
2022/08/23 03:40:03;;;;;;;4.80;1.80;;;21.10;81.10;;;;;;4991425;28;20064;-79
2022/08/23 03:42:29;;;;;;;7.60;1.80;;;21.00;80.30;;;;;;4991321;28;20026;-80
2022/08/23 03:44:55;;;;;;;7.00;1.80;;;21.10;80.30;;;;;;4991004;28;20049;-79
2022/08/23 03:47:21;;;;;;;4.72;2.15;;;21.10;80.10;;;;;;4991207;28;20023;-79
2022/08/23 03:49:47;;;;;;;5.63;1.80;;;20.90;80.50;;;;;;4991448;28;20080;-80
2022/08/23 03:52:13;;;;;;;9.63;2.00;;;21.00;80.40;;;;;;4990218;28;20361;-80
2022/08/23 03:54:39;;;;;;;5.45;2.00;;;21.00;80.40;;;;;;4990183;28;20053;-80
2022/08/23 03:57:08;;;;;;;5.72;2.10;;;21.00;80.60;;;;;;4991223;28;20372;-80
2022/08/23 03:59:36;;;;;;;3.78;1.50;;;20.90;80.80;;;;;;4990980;28;20088;-79
2022/08/23 04:02:02;;;;;;;9.40;1.73;;;20.90;81.00;;;;;;4991705;28;20084;-79
2022/08/23 04:04:28;;;;;;;5.32;2.40;;;20.90;81.00;;;;;;4990993;28;20042;-81
2022/08/23 04:06:55;;;;;;;5.97;1.90;;;20.80;81.30;;;;;;4991194;28;20038;-80
2022/08/23 04:09:21;;;;;;;14.82;3.22;;;20.80;81.60;;;;;;4991183;28;20031;-80
2022/08/23 04:11:47;;;;;;;4.00;1.77;;;20.80;81.60;;;;;;4991260;28;20027;-79
2022/08/23 04:14:13;;;;;;;5.60;2.10;;;20.70;81.90;;;;;;4991387;28;20033;-79
2022/08/23 04:16:40;;;;;;;4.72;1.95;;;20.70;82.00;;;;;;4991535;28;20015;-80
2022/08/23 04:19:08;;;;;;;4.87;1.90;;;20.70;82.20;;;;;;4991149;28;20051;-80
2022/08/23 04:21:35;;;;;;;;;;;20.80;82.00;;;;;;4991731;28;20027;-80
2022/08/23 04:24:01;;;;;;;6.30;1.85;;;20.70;82.10;;;;;;4989896;28;20084;-80
2022/08/23 04:26:26;;;;;;;4.88;2.05;;;20.70;82.30;;;;;;4991058;28;20022;-80
2022/08/23 04:28:52;;;;;;;5.80;2.30;;;20.70;82.60;;;;;;4991425;28;20341;-81
2022/08/23 04:31:20;;;;;;;7.63;2.00;;;20.70;82.60;;;;;;4993032;28;20038;-79
2022/08/23 04:33:46;;;;;;;7.60;2.45;;;20.70;82.20;;;;;;4990611;28;20042;-79
2022/08/23 04:36:12;;;;;;;8.18;2.20;;;20.70;82.60;;;;;;4990996;28;20049;-79
2022/08/23 04:38:38;;;;;;;8.90;1.98;;;20.70;82.60;;;;;;4991012;28;20027;-79
2022/08/23 04:43:51;;;;;;;5.20;2.30;;;20.70;83.10;;;;;;4995224;28;20368;-80
2022/08/23 04:46:16;;;;;;;5.13;2.10;;;20.60;83.60;;;;;;4993689;28;20034;-79
2022/08/23 04:48:44;;;;;;;9.00;2.63;;;20.70;83.40;;;;;;4998856;28;20041;-80
2022/08/23 04:51:10;;;;;;;7.43;2.47;;;20.60;83.40;;;;;;4996975;28;20038;-81
2022/08/23 04:53:37;;;;;;;9.77;2.28;;;20.60;83.90;;;;;;4995133;28;20372;-79
2022/08/23 04:56:07;;;;;;;7.90;2.15;;;20.70;83.30;;;;;;4995737;28;20131;-82
2022/08/23 04:58:34;;;;;;;7.47;2.28;;;20.70;83.40;;;;;;4995071;28;20042;-81
2022/08/23 05:01:06;;;;;;;6.13;2.53;;;20.70;83.60;;;;;;4995618;28;20392;-82
2022/08/23 05:03:34;;;;;;;28.27;17.38;;;20.60;83.90;;;;;;4995252;28;20037;-80
2022/08/23 05:06:00;;;;;;;6.30;3.42;;;20.70;83.30;;;;;;4999360;28;20232;-78
2022/08/23 05:08:26;;;;;;;8.65;2.58;;;20.70;83.70;;;;;;4999761;28;20026;-80
2022/08/23 05:10:52;;;;;;;6.75;2.42;;;20.60;84.40;;;;;;5006944;28;20046;-78
2022/08/23 05:13:18;;;;;;;9.15;2.40;;;20.60;84.00;;;;;;5004709;28;20030;-80
2022/08/23 05:15:43;;;;;;;11.90;2.80;;;20.70;83.90;;;;;;5007370;28;20666;-79
2022/08/23 05:18:09;;;;;;;8.15;2.60;;;20.80;84.00;;;;;;4997552;28;20353;-80
2022/08/23 05:20:35;;;;;;;8.43;2.00;;;20.80;83.50;;;;;;4994648;28;20127;-81
2022/08/23 05:23:01;;;;;;;8.52;2.42;;;20.80;83.70;;;;;;4995706;28;20022;-80
2022/08/23 05:25:48;;;;;;;4.20;2.00;;;20.80;83.90;;;;;;4994844;28;20031;-81
2022/08/23 05:28:15;;;;;;;6.50;1.83;;;20.80;83.60;;;;;;4993965;28;20251;-80
2022/08/23 05:30:40;;;;;;;9.00;2.10;;;20.90;84.10;;;;;;4992682;28;20053;-79
2022/08/23 05:33:06;;;;;;;8.48;2.20;;;20.80;84.20;;;;;;4992351;28;20360;-80
2022/08/23 05:35:32;;;;;;;5.43;2.28;;;20.80;84.80;;;;;;4994347;28;20590;-80
2022/08/23 05:37:59;;;;;;;6.00;2.38;;;20.80;84.60;;;;;;4994006;28;20019;-81
2022/08/23 05:40:28;;;;;;;9.93;2.80;;;20.90;84.70;;;;;;4994645;28;20400;-81
2022/08/23 05:42:54;;;;;;;8.88;2.30;;;21.00;84.20;;;;;;4994970;28;20034;-81
2022/08/23 05:45:20;;;;;;;6.53;1.90;;;21.00;84.50;;;;;;4999559;28;20065;-79
2022/08/23 05:47:45;;;;;;;9.05;2.60;;;21.10;84.00;;;;;;5000174;28;20049;-80
2022/08/23 05:50:12;;;;;;;7.90;1.90;;;21.00;84.30;;;;;;4997452;28;20349;-79
2022/08/23 05:52:38;;;;;;;10.40;2.35;;;21.10;83.70;;;;;;4995754;28;20134;-81
2022/08/23 05:55:05;;;;;;;8.13;1.88;;;21.00;84.30;;;;;;4995558;28;20038;-80
2022/08/23 05:57:34;;;;;;;9.57;2.42;;;21.00;84.40;;;;;;4994762;28;20043;-81
2022/08/23 06:00:00;;;;;;;6.63;2.50;;;21.00;84.60;;;;;;4993950;28;20038;-79
2022/08/23 06:02:25;;;;;;;7.35;2.70;;;21.10;84.70;;;;;;4995765;28;20039;-80
2022/08/23 06:04:51;;;;;;;4.82;2.92;;;21.10;84.80;;;;;;4996967;28;20018;-80
2022/08/23 06:07:17;;;;;;;4.80;2.30;;;21.10;84.80;;;;;;4997187;28;20022;-78
2022/08/23 06:09:42;;;;;;;10.95;2.58;;;21.10;85.00;;;;;;4996510;28;20077;-80
2022/08/23 06:12:08;;;;;;;8.55;2.30;;;21.10;84.90;;;;;;4996379;28;20038;-80
2022/08/23 06:14:34;;;;;;;11.13;2.63;;;21.20;85.00;;;;;;4996932;28;20097;-79
2022/08/23 06:16:59;;;;;;;6.60;2.30;;;21.20;84.80;;;;;;4996820;28;20034;-79
2022/08/23 06:19:25;;;;;;;11.40;2.25;;;21.10;85.30;;;;;;4997634;28;20367;-77
2022/08/23 06:21:51;;;;;;;12.27;2.33;;;21.30;85.30;;;;;;5000795;28;20338;-79
2022/08/23 06:24:18;;;;;;;11.02;2.75;;;21.30;85.10;;;;;;5002639;28;20038;-80
2022/08/23 06:26:44;;;;;;;12.07;3.13;;;21.30;84.90;;;;;;5003556;28;20034;-80
2022/08/23 06:29:13;;;;;;;10.82;3.25;;;21.40;84.60;;;;;;5002203;28;20027;-80
2022/08/23 06:31:46;;;;;;;4.20;2.30;;;21.40;85.10;;;;;;5005392;28;20034;-79
2022/08/23 06:34:32;;;;;;;10.20;2.10;;;21.40;85.40;;;;;;5003845;28;20035;-79
2022/08/23 06:37:10;;;;;;;8.38;2.33;;;21.40;85.40;;;;;;5001332;28;20037;-78
2022/08/23 06:39:37;;;;;;;5.40;2.45;;;21.40;85.70;;;;;;4999919;28;20065;-79
2022/08/23 06:42:10;;;;;;;12.60;2.95;;;21.50;85.40;;;;;;4994723;28;20030;-79
2022/08/23 06:44:35;;;;;;;20.70;3.45;;;21.50;84.80;;;;;;4993830;28;20026;-80
2022/08/23 06:47:03;;;;;;;7.82;2.85;;;21.60;85.40;;;;;;4993374;28;20041;-79
2022/08/23 06:49:29;;;;;;;9.35;3.28;;;21.60;85.50;;;;;;4993219;28;20039;-80
2022/08/23 06:51:57;;;;;;;4.55;2.10;;;21.70;85.00;;;;;;4993313;28;20034;-79
2022/08/23 06:54:23;;;;;;;;;;;21.70;85.00;;;;;;4993042;28;20574;-81
2022/08/23 06:56:50;;;;;;;4.75;2.22;;;21.70;85.20;;;;;;4992640;28;20337;-80
2022/08/23 06:59:17;;;;;;;6.72;2.63;;;21.80;84.60;;;;;;4992058;28;20029;-80
2022/08/23 07:01:49;;;;;;;7.43;2.73;;;21.80;84.50;;;;;;4992852;28;20045;-80
2022/08/23 07:04:20;;;;;;;7.22;2.70;;;21.80;84.60;;;;;;4990063;28;20066;-80
2022/08/23 07:06:46;;;;;;;6.70;2.10;;;21.90;84.20;;;;;;4991780;28;20526;-80
2022/08/23 07:09:12;;;;;;;7.97;2.28;;;22.00;84.10;;;;;;4990643;28;20126;-78
2022/08/23 07:11:38;;;;;;;6.95;3.33;;;22.00;84.20;;;;;;4990735;28;20455;-78
2022/08/23 07:14:09;;;;;;;7.70;2.10;;;22.10;84.30;;;;;;4992330;28;20393;-79
2022/08/23 07:16:38;;;;;;;15.02;2.53;;;22.00;84.10;;;;;;4991952;28;20034;-80
2022/08/23 07:19:05;;;;;;;13.70;8.30;;;22.20;84.00;;;;;;4992462;28;20030;-79
2022/08/23 07:21:31;;;;;;;8.35;3.97;;;22.20;84.00;;;;;;4992511;28;20100;-81
2022/08/23 07:23:57;;;;;;;10.98;2.45;;;22.20;84.00;;;;;;4992674;28;20056;-79
2022/08/23 07:26:23;;;;;;;6.80;3.03;;;22.30;84.00;;;;;;4991970;28;20033;-80
2022/08/23 07:28:49;;;;;;;10.63;2.90;;;22.40;83.80;;;;;;4992866;28;20050;-79
2022/08/23 07:31:27;;;;;;;5.55;1.98;;;22.40;83.80;;;;;;4990907;28;20081;-79
2022/08/23 07:33:54;;;;;;;;;;;22.50;83.50;;;;;;4992291;28;20031;-79
2022/08/23 07:36:22;;;;;;;6.82;2.38;;;22.70;83.50;;;;;;4992012;28;20010;-78
2022/08/23 07:38:48;;;;;;;11.32;2.47;;;22.70;83.50;;;;;;4991547;28;20441;-77
2022/08/23 07:41:16;;;;;;;6.57;2.33;;;22.90;83.30;;;;;;4991790;28;20027;-78
2022/08/23 07:43:43;;;;;;;6.80;3.00;;;23.10;82.50;;;;;;4992589;28;20077;-79
2022/08/23 07:46:12;;;;;;;6.57;2.05;;;23.10;82.10;;;;;;4991785;28;20042;-78
2022/08/23 07:48:38;;;;;;;4.82;2.10;;;23.20;81.60;;;;;;4991644;28;20034;-80
2022/08/23 07:51:08;;;;;;;6.72;2.63;;;23.30;80.70;;;;;;4991617;28;20030;-80
2022/08/23 07:53:34;;;;;;;12.18;2.30;;;23.30;80.00;;;;;;4991431;28;20158;-79
2022/08/23 07:56:08;;;;;;;5.57;2.03;;;23.40;79.30;;;;;;4991076;28;20058;-79
2022/08/23 07:58:34;;;;;;;6.47;2.17;;;23.60;79.40;;;;;;4991539;28;20076;-80
2022/08/23 08:01:14;;;;;;;8.63;2.83;;;23.70;79.40;;;;;;4991340;28;20480;-79
2022/08/23 08:03:42;;;;;;;5.63;2.10;;;23.70;78.70;;;;;;4990348;28;20030;-77
2022/08/23 08:06:14;;;;;;;2.60;1.50;;;23.80;78.30;;;;;;4990250;28;20390;-79
2022/08/23 08:08:41;;;;;;;4.78;2.08;;;24.00;77.60;;;;;;4990170;28;20031;-79
2022/08/23 08:11:12;;;;;;;3.83;1.80;;;24.10;76.90;;;;;;4991662;28;20379;-78
2022/08/23 08:13:40;;;;;;;4.32;2.10;;;24.20;75.90;;;;;;4991264;28;20045;-79
2022/08/23 08:16:07;;;;;;;7.90;1.98;;;24.30;76.10;;;;;;4992172;28;20040;-77
2022/08/23 08:18:34;;;;;;;6.80;1.67;;;24.60;75.20;;;;;;4993379;28;20089;-78
2022/08/23 08:21:00;;;;;;;6.65;1.80;;;24.90;73.70;;;;;;4995067;28;20134;-81
2022/08/23 08:23:28;;;;;;;12.75;2.30;;;25.10;73.30;;;;;;4995263;28;20105;-80
2022/08/23 08:26:19;;;;;;;;;;;25.30;73.70;;;;;;4996151;28;20398;-79
2022/08/23 08:28:45;;;;;;;5.93;2.08;;;25.80;72.40;;;;;;4995555;28;19918;-79
2022/08/23 08:31:11;;;;;;;5.57;1.60;;;26.50;70.50;;;;;;4994525;28;20034;-79
2022/08/23 08:33:38;;;;;;;3.35;1.63;;;27.40;68.30;;;;;;4993272;28;20460;-82
2022/08/23 08:36:05;;;;;;;4.57;1.40;;;28.30;64.70;;;;;;4994063;28;20390;-81
2022/08/23 08:38:31;;;;;;;3.10;1.70;;;29.10;64.80;;;;;;4994436;28;20033;-80
2022/08/23 08:41:06;;;;;;;5.53;1.33;;;29.70;61.30;;;;;;4993902;28;20030;-81
2022/08/23 08:44:02;;;;;;;3.40;1.00;;;30.40;58.50;;;;;;4994150;28;20034;-81
2022/08/23 08:46:39;;;;;;;3.22;1.35;;;30.70;56.60;;;;;;4993676;28;20048;-78
2022/08/23 08:49:08;;;;;;;2.88;1.13;;;31.40;56.00;;;;;;4994538;28;20477;-78
2022/08/23 08:51:49;;;;;;;6.40;3.22;;;31.70;52.20;;;;;;4994360;28;20241;-80
2022/08/23 08:54:21;;;;;;;2.78;1.20;;;32.00;51.40;;;;;;4994239;28;20466;-78
2022/08/23 08:56:51;;;;;;;3.63;1.15;;;32.20;49.50;;;;;;4994435;28;20026;-80
2022/08/23 09:00:00;;;;;;;3.25;0.95;;;32.70;50.40;;;;;;4994669;28;20178;-79
2022/08/23 09:02:30;;;;;;;8.45;1.08;;;33.30;50.10;;;;;;4952907;29;20031;-79
2022/08/23 09:04:57;;;;;;;2.42;1.02;;;33.50;48.70;;;;;;4937320;29;20384;-82
2022/08/23 09:07:26;;;;;;;3.83;0.93;;;33.80;47.20;;;;;;4974778;28;20372;-80
2022/08/23 09:10:00;;;;;;;2.75;0.95;;;33.90;46.80;;;;;;4993872;28;20217;-80
2022/08/23 09:12:45;;;;;;;2.67;1.25;;;34.70;45.70;;;;;;4992804;28;20164;-81
2022/08/23 09:15:40;;;;;;;3.00;0.95;;;34.60;43.20;;;;;;4993798;28;20110;-81
2022/08/23 09:18:30;;;;;;;1.60;0.80;;;35.30;43.30;;;;;;4993911;28;20346;-81
2022/08/23 09:20:58;;;;;;;1.58;0.70;;;35.60;42.80;;;;;;4993853;28;20042;-81
2022/08/23 09:23:31;;;;;;;2.03;1.00;;;36.30;42.10;;;;;;4994621;28;20416;-80
2022/08/23 09:26:26;;;;;;;4.03;1.10;;;36.40;42.20;;;;;;4993015;28;20034;-82
2022/08/23 09:29:03;;;;;;;1.85;0.80;;;36.50;41.40;;;;;;4993423;28;20038;-79
2022/08/23 09:31:42;;;;;;;1.27;0.80;;;36.60;41.10;;;;;;4994925;28;20117;-81
2022/08/23 09:34:09;;;;;;;4.07;0.95;;;37.20;39.80;;;;;;4993646;28;20031;-80
2022/08/23 09:36:37;;;;;;;1.13;0.70;;;37.10;39.60;;;;;;4993816;28;20038;-80
2022/08/23 09:39:07;;;;;;;1.20;0.85;;;38.10;39.40;;;;;;4992397;28;20100;-80
2022/08/23 09:41:40;;;;;;;4.57;1.08;;;38.50;40.20;;;;;;4993279;28;20030;-80
2022/08/23 09:44:12;;;;;;;4.22;1.40;;;38.30;36.50;;;;;;4994208;28;20373;-80
2022/08/23 09:46:40;;;;;;;5.75;1.35;;;38.30;37.10;;;;;;4993677;28;20042;-81
2022/08/23 09:49:27;;;;;;;2.42;1.05;;;38.90;37.40;;;;;;4993596;28;20034;-82
2022/08/23 09:51:55;;;;;;;4.95;1.45;;;39.50;36.30;;;;;;4992327;28;20034;-82
2022/08/23 09:54:27;;;;;;;8.25;1.58;;;39.30;36.70;;;;;;4993619;28;20043;-82
2022/08/23 09:56:56;;;;;;;4.88;1.13;;;39.50;35.80;;;;;;4993616;28;20540;-81
2022/08/23 09:59:24;;;;;;;3.30;1.42;;;38.40;36.10;;;;;;4993263;28;20030;-81
2022/08/23 10:01:55;;;;;;;4.03;1.52;;;39.00;36.00;;;;;;4994174;28;20048;-79
2022/08/23 10:04:32;;;;;;;5.18;1.00;;;39.30;35.10;;;;;;4993402;28;20376;-82
2022/08/23 10:06:58;;;;;;;5.20;0.88;;;39.20;33.80;;;;;;4993329;28;20030;-81
2022/08/23 10:09:28;;;;;;;4.25;1.10;;;38.80;34.80;;;;;;4991690;28;20065;-80
2022/08/23 10:11:56;;;;;;;4.40;1.17;;;38.20;34.50;;;;;;4988778;28;20044;-81
2022/08/23 10:14:23;;;;;;;3.15;1.10;;;38.50;36.30;;;;;;4991923;28;20125;-79
2022/08/23 10:17:17;;;;;;;3.03;1.10;;;38.50;35.40;;;;;;4993186;28;20041;-82
2022/08/23 10:20:27;;;;;;;3.03;1.33;;;39.00;35.40;;;;;;4993387;28;20031;-80
2022/08/23 10:23:04;;;;;;;5.38;1.38;;;37.80;35.60;;;;;;4973846;28;20453;-81
2022/08/23 10:25:46;;;;;;;5.32;1.08;;;38.40;35.70;;;;;;4992707;28;20349;-79
2022/08/23 10:31:14;;;;;;;3.22;1.30;;;37.90;35.00;;;;;;4992285;28;20041;-81
2022/08/23 10:34:11;;;;;;;5.65;1.50;;;37.10;36.10;;;;;;4992680;28;20151;-81
2022/08/23 10:37:04;;;;;;;7.15;1.70;;;38.10;35.30;;;;;;4992470;28;20056;-82
2022/08/23 10:39:30;;;;;;;3.10;1.25;;;37.00;36.10;;;;;;4992144;28;20094;-82
2022/08/23 10:42:05;;;;;;;4.45;1.67;;;36.80;37.20;;;;;;4992646;28;20400;-81
2022/08/23 10:44:37;;;;;;;3.80;1.38;;;37.00;36.30;;;;;;4993179;28;20041;-81
2022/08/23 10:47:36;;;;;;;4.50;1.27;;;37.10;36.70;;;;;;4992849;28;20023;-80
2022/08/23 10:50:06;;;;;;;3.85;1.00;;;36.90;36.70;;;;;;4992755;28;20479;-80
2022/08/23 10:52:39;;;;;;;3.53;1.75;;;36.80;36.40;;;;;;4993275;28;20038;-80
2022/08/23 10:55:23;;;;;;;6.40;2.42;;;36.70;36.20;;;;;;4993509;28;20042;-80
2022/08/23 10:57:51;;;;;;;7.25;1.55;;;36.30;36.40;;;;;;4993081;28;20371;-80
2022/08/23 11:00:24;;;;;;;6.85;1.88;;;34.40;38.10;;;;;;4993243;28;20038;-79
2022/08/23 11:03:09;;;;;;;4.20;1.17;;;33.90;39.00;;;;;;4992936;28;20034;-79
2022/08/23 11:05:37;;;;;;;4.70;1.20;;;33.90;39.20;;;;;;4995577;28;20065;-80
2022/08/23 11:08:31;;;;;;;5.63;1.35;;;34.00;39.60;;;;;;4995362;28;20026;-80
2022/08/23 11:10:56;;;;;;;4.25;1.27;;;34.10;39.90;;;;;;4992371;28;20081;-79
2022/08/23 11:13:28;;;;;;;10.35;1.50;;;33.90;39.80;;;;;;4992363;28;20472;-80
2022/08/23 11:16:13;;;;;;;3.95;1.40;;;33.30;39.90;;;;;;4992162;28;20030;-79
2022/08/23 11:18:48;;;;;;;4.95;2.63;;;33.10;39.90;;;;;;4992275;28;20125;-78
2022/08/23 11:21:17;;;;;;;4.78;1.60;;;33.20;40.20;;;;;;4991462;28;20030;-80
2022/08/23 11:23:49;;;;;;;3.88;1.40;;;33.10;40.00;;;;;;4991722;28;20105;-79
2022/08/23 11:26:35;;;;;;;2.47;0.98;;;32.90;40.40;;;;;;4992831;28;20026;-79
2022/08/23 11:29:09;;;;;;;2.30;1.00;;;33.00;40.30;;;;;;4993019;28;20537;-79
2022/08/23 11:31:49;;;;;;;3.80;1.15;;;33.10;40.10;;;;;;4992159;28;20049;-79
2022/08/23 11:34:20;;;;;;;4.28;1.92;;;32.70;40.20;;;;;;4995030;28;20038;-80
2022/08/23 11:37:20;;;;;;;3.33;1.38;;;32.70;40.40;;;;;;4994597;28;20461;-80
2022/08/23 11:39:58;;;;;;;18.90;2.10;;;32.60;40.80;;;;;;4994276;28;20465;-80
2022/08/23 11:42:39;;;;;;;4.35;1.52;;;32.60;40.70;;;;;;4993438;28;20104;-78
2022/08/23 11:45:25;;;;;;;4.15;1.10;;;32.50;40.80;;;;;;4991960;28;20030;-80
2022/08/23 11:48:12;;;;;;;4.60;1.15;;;32.40;40.90;;;;;;4994811;28;20034;-78
2022/08/23 11:50:50;;;;;;;4.32;1.52;;;32.30;41.20;;;;;;4997866;28;20026;-78
2022/08/23 11:53:40;;;;;;;7.30;1.30;;;32.30;41.60;;;;;;4998642;28;20026;-79
2022/08/23 11:56:42;;;;;;;5.95;1.33;;;32.10;41.60;;;;;;4995146;28;20081;-79
2022/08/23 11:59:35;;;;;;;14.35;1.70;;;32.10;41.80;;;;;;4995422;28;20031;-81
2022/08/23 12:02:31;;;;;;;5.00;1.35;;;32.00;41.80;;;;;;4995872;28;20054;-81
2022/08/23 12:05:07;;;;;;;3.40;1.15;;;31.80;42.10;;;;;;4995598;28;20042;-83
2022/08/23 12:07:51;;;;;;;3.45;1.33;;;31.60;41.90;;;;;;4993776;28;20096;-78
2022/08/23 12:10:44;;;;;;;4.32;1.40;;;31.60;41.50;;;;;;4994007;28;20137;-80
2022/08/23 12:13:56;;;;;;;3.65;1.30;;;31.40;42.30;;;;;;4995122;28;20097;-79
2022/08/23 12:16:22;;;;;;;9.10;1.50;;;31.40;42.50;;;;;;4985055;28;20041;-81
2022/08/23 12:18:48;;;;;;;6.45;1.23;;;31.30;42.30;;;;;;4994985;28;20034;-81
2022/08/23 12:21:28;;;;;;;5.85;1.40;;;31.30;42.40;;;;;;4995123;28;20081;-81
2022/08/23 12:23:57;;;;;;;3.65;1.25;;;31.20;42.60;;;;;;4994964;28;20109;-80
2022/08/23 12:26:28;;;;;;;3.03;0.90;;;31.20;42.70;;;;;;4994717;28;20463;-82
2022/08/23 12:29:03;;;;;;;4.70;1.15;;;31.30;42.50;;;;;;4995656;28;20045;-82
2022/08/23 12:31:50;;;;;;;7.45;1.40;;;31.20;42.40;;;;;;4994969;28;20038;-82
2022/08/23 12:34:25;;;;;;;2.13;1.20;;;31.30;42.60;;;;;;4994561;28;20042;-80
2022/08/23 12:37:12;;;;;;;7.80;1.10;;;31.30;42.20;;;;;;4994930;28;20030;-81
2022/08/23 12:39:49;;;;;;;6.25;1.40;;;31.30;42.10;;;;;;4994623;28;20022;-81
2022/08/23 12:42:22;;;;;;;4.07;1.48;;;31.20;42.40;;;;;;4993869;28;20034;-82
2022/08/23 12:45:00;;;;;;;9.57;3.60;;;31.10;42.70;;;;;;4994732;28;20368;-81
2022/08/23 12:47:26;;;;;;;;;;;31.10;42.60;;;;;;4994930;28;20400;-83
2022/08/23 12:50:05;;;;;;;2.88;1.40;;;31.10;42.40;;;;;;4994974;28;20000;-79
2022/08/23 12:52:33;;;;;;;7.47;1.55;;;31.20;42.40;;;;;;4994228;28;20062;-81
2022/08/23 12:55:00;;;;;;;5.32;1.02;;;31.20;42.10;;;;;;4994478;28;20030;-80
2022/08/23 12:57:34;;;;;;;3.08;1.23;;;31.10;42.10;;;;;;4994178;28;20093;-81
2022/08/23 13:00:12;;;;;;;5.25;1.00;;;31.10;42.30;;;;;;4994177;28;20432;-80
2022/08/23 13:02:40;;;;;;;2.47;1.00;;;31.10;42.40;;;;;;4991738;28;20192;-79
2022/08/23 13:05:16;;;;;;;3.88;1.10;;;31.10;42.00;;;;;;4994608;28;20120;-80
2022/08/23 13:07:41;;;;;;;7.75;1.15;;;30.80;42.00;;;;;;4994200;28;20038;-81
2022/08/23 13:10:09;;;;;;;5.85;1.08;;;30.90;42.50;;;;;;4993861;28;20124;-78
2022/08/23 13:12:36;;;;;;;;;;;30.80;42.60;;;;;;4994686;28;20050;-84
2022/08/23 13:15:04;;;;;;;1.02;0.88;;;30.70;42.90;;;;;;4994042;28;19913;-81
2022/08/23 13:17:37;;;;;;;2.55;0.90;;;30.70;43.20;;;;;;4993966;28;20026;-79
2022/08/23 13:20:06;;;;;;;3.08;1.05;;;30.80;43.30;;;;;;4994357;28;20129;-81